ETEB/QOB METAR and TAF weather

Enter ICAO airport designator
Station Type Date Time Source
ETEB METAR 2020/07/10 18:56 UTC NOAA

ETEB 101856Z AUTO 32008KT 9999 FEW042 SCT150 20/11 A3001 RMK AO2 SLP155 T02000112 $


Station Type Date Time Source
ETEB Decoded METAR 2020/07/10 18:56 UTC NOAA

Ansbach / Katterbach, Germany (ETEB) 49-19N 010-38E 476M
Jul 10, 2020 - 02:56 PM EDT / 2020.07.10 1856 UTC
Wind: from the NW (320 degrees) at 9 MPH (8 KT):0
Visibility: greater than 7 mile(s):0
Sky conditions: partly cloudy
Temperature: 68.0 F (20.0 C)
Dew Point: 52.2 F (11.2 C)
Relative Humidity: 56%
Pressure (altimeter): 30.01 in. Hg (1016 hPa)
ob: ETEB 101856Z AUTO 32008KT 9999 FEW042 SCT150 20/11 A3001 RMK AO2 SLP155 T02000112
cycle: 19

Station Type Date Time Source
ETEB TAF 2020/07/10 16:08 UTC NOAA

TAF
AMD ETEB 101600Z 1016/1115 25015G25KT 9999 FEW070 SCT120 QNH2988INS
BECMG 1017/1018 33009KT 9999 BKN015 QNH2996INS
BECMG 1023/1024 36009KT 9000 -SHRA BKN010 OVC035 QNH2999INS
BECMG 1105/1106 36009KT 9999 NSW FEW010 SCT035 QNH2989INS TX23/1016Z TN13/1103Z LAST NO
AMDS AFT 1016 NEXT 1309

Example: see airport list